Kelley, Iowa
Current Conditions -  °F | °C
As of 11:07 PM on Saturday 20 Dec 2014 (Local Time) from KAMW Reporting Station
Haze Haze  
Wind Chill: 26°   Ceiling: 200
Heat Index: 33°   Visibility: 1.7mi
Dew Point: 32°   Wind: 8mph
Humidity: 96%   Direction: 140°SE
Pressure: 30.08"   Gusts: NA
Location:  41.95°N, 93.67°W
Report Text: KAMW 210507Z AUTO 14007KT 1 3/4SM BR OVC002 01/00 A3008 RMK AO2 T00060000
Loading
Personal Weather Stations






























Interactive Weather Map New forecast layout! Learn more

10-Day Weather Forecast

Advertisements
Track Severe Weather on mobile